TAF Text Data
IDs:
Format:
Raw Decoded Include METAR

Data at: 1012 UTC 23 Jan 2019

KTEB 230951Z 20010KT 10SM CLR M01/M09 A3041 RMK AO2 SLP299 T10111094

KTEB 230803Z 2308/2412 19009KT P6SM SCT100 BKN250
  FM231200 19009KT P6SM SCT040 BKN150
  FM231500 20008KT P6SM SCT025 BKN050
  FM232100 19006KT P6SM VCSH BKN025 OVC040
  FM240000 19006KT P6SM VCSH SCT015 BKN025 WS020/21045KT
  FM240300 20007KT 5SM -RA BR SCT007 BKN015 WS020/21045KT
  FM240900 17012KT 2SM RA BR OVC007 WS020/20045KT


KEWR 230951Z 19009KT 10SM OVC150 M01/M09 A3042 RMK AO2 SLP300 T10111089

KEWR 230803Z 2308/2412 19010KT P6SM SCT100 BKN250
  FM231200 19010KT P6SM SCT040 BKN150
  FM231500 20010KT P6SM SCT025 BKN050
  FM232100 20007KT P6SM VCSH BKN025 OVC040 WS020/21045KT
  FM240000 20007KT P6SM VCSH SCT015 BKN025 WS020/21045KT
  FM240300 20008KT 5SM -RA BR SCT007 BKN015 WS020/21045KT
  FM240900 17012KT 2SM RA BR OVC007 WS020/20050KT


KMMU 230955Z AUTO 00000KT 10SM CLR M02/M10 A3038 RMK AO2


KABE 230951Z AUTO 20008KT 10SM CLR M01/M10 A3036 RMK AO2 SLP285 T10111100

KABE 230535Z 2306/2406 18005KT P6SM BKN200
  FM231400 19006KT P6SM OVC050
  FM231600 19006KT P6SM OVC035
  FM232100 19006KT P6SM -RA OVC025 WS020/20040KT
  FM240000 19006KT 5SM -RA BR OVC010 WS020/20045KT
  FM240300 19006KT 3SM -RA BR OVC007 WS020/20045KT


KAVP 230954Z 23006KT 10SM CLR M04/M12 A3027 RMK AO2 SLP264 T10391122

KAVP 230910Z 2309/2406 21007G13KT P6SM SCT080 BKN150 WS020/22035KT
  FM231700 21008KT P6SM OVC040 WS020/22040KT
  FM232000 20008KT 4SM -RA OVC018 WS020/21050KT
  FM240200 21009KT 2SM -RA BR OVC012 WS020/21050KT


KFWN 230953Z AUTO 00000KT 10SM CLR M07/M11 A3033 RMK AO2 SLP276 T10721106 $


KSWF 230945Z VRB04KT 10SM BKN100 M04/M11 A3036

KSWF 230803Z 2308/2412 VRB03KT P6SM BKN250
  FM231300 23006KT P6SM SCT040 BKN120
  FM231700 24008KT P6SM VCSH SCT025 OVC080
  PROB30 2317/2321 -FZRA
  FM232100 21008KT P6SM -SHRA SCT015 BKN025
  FM240000 20007KT 5SM -RA BR SCT007 BKN012
  FM240300 20008KT 3SM -RA BR BKN007
  FM240700 21010KT 2SM RA BR SCT004 OVC007 WS020/20045KT AMD NOT SKED


K12N 230954Z AUTO 17003KT M03/M11 A3033 RMK AO1 SLP285 T10331106